Faycan — EBRA — position and weather

sailwx.info

Track history (hours):
 
Tides and Currents Weather Stations Pressure Air Temp Water Temp Dewpoint Dewpoint Depression Visibility Wind Speed Wind Dir Waves Ship Positions

Faycan

Last reported at 2017-Nov-18 19:51 UTC. Time now 2017-Nov-21 13:58 UTC.
Position N 28°43' W 015°04'.

Length 110 m; draft 6.8 m.

Type: Tanker. MMSI: 224458000.

Date/timePositionNaut miles runAvg speedWind from/ knotsBaromVisibWave heightAir tempDewpointWater temp
2017-Nov-18 19:51N 28°43' W 015°04'3 7.8
2017-Nov-18 19:30N 28°43' W 015°07'4 7.7
2017-Nov-18 18:58N 28°43' W 015°12'4 7.4
2017-Nov-18 18:24N 28°43' W 015°17'3 7.4
2017-Nov-18 18:00N 28°43' W 015°20'4 7.4
2017-Nov-18 17:30N 28°43' W 015°25'4 7.4
2017-Nov-18 17:00N 28°42' W 015°29'4 7.4
2017-Nov-18 16:29N 28°41' W 015°33'4 7.2
2017-Nov-18 15:58N 28°41' W 015°37'5 7.2
2017-Nov-18 15:13N 28°40' W 015°43'2 7.2
2017-Nov-18 14:58N 28°39' W 015°45'14 7.4
2017-Nov-18 13:06N 28°34' W 015°60'1 7.8
2017-Nov-18 13:00N 28°34' W 016°01'5 8.0
2017-Nov-18 12:22N 28°31' W 016°06'5 8.0
2017-Nov-18 11:45N 28°29' W 016°10'5 0.3
2017-Nov-17 18:17N 28°27' W 016°16'1 2.3
2017-Nov-17 17:43N 28°27' W 016°14'3 2.0
2017-Nov-17 16:00N 28°23' W 016°13'1 0.8
2017-Nov-17 14:48N 28°24' W 016°12'1 0.7
2017-Nov-17 13:34N 28°25' W 016°12'0 0.6
2017-Nov-17 13:26N 28°25' W 016°12'0 0.7
2017-Nov-17 13:00N 28°25' W 016°12'0 0.7
2017-Nov-17 12:26N 28°25' W 016°11'0 0.6
2017-Nov-17 12:00N 28°26' W 016°11'0 0.6
2017-Nov-17 11:24N 28°26' W 016°11'3 7.5
2017-Nov-17 11:00N 28°28' W 016°09'5 8.6
2017-Nov-17 10:28N 28°31' W 016°05'4 8.7
2017-Nov-17 09:59N 28°33' W 016°01'4 8.8
2017-Nov-17 09:30N 28°35' W 015°56'4 8.7
2017-Nov-17 09:00N 28°37' W 015°52'4 8.8
2017-Nov-17 08:30N 28°38' W 015°47'4 8.1
2017-Nov-17 08:00N 28°38' W 015°43'4 8.6
2017-Nov-17 07:30N 28°35' W 015°39'4 8.6
2017-Nov-17 07:00N 28°33' W 015°35'4 8.4
2017-Nov-17 06:30N 28°30' W 015°31'4 8.3
2017-Nov-17 06:00N 28°28' W 015°27'4 8.3
2017-Nov-17 05:30N 28°25' W 015°24'4 8.5
2017-Nov-17 05:00N 28°23' W 015°20'4 8.5
2017-Nov-17 04:30N 28°20' W 015°16'4 8.4
2017-Nov-17 04:00N 28°17' W 015°12'4 8.5
2017-Nov-17 03:30N 28°15' W 015°08'4 8.3
2017-Nov-17 03:00N 28°12' W 015°05'4 8.5
2017-Nov-17 02:30N 28°10' W 015°00'4 8.8
2017-Nov-17 02:00N 28°09' W 014°56'4 8.6
2017-Nov-17 01:30N 28°08' W 014°51'4 8.2
2017-Nov-17 01:00N 28°06' W 014°47'4 8.3
2017-Nov-17 00:30N 28°05' W 014°42'4 8.6
2017-Nov-17 00:00N 28°03' W 014°38'4 8.1
2017-Nov-16 23:30N 28°02' W 014°33'24 7.8
2017-Nov-16 20:28N 28°06' W 014°07'4 8.3
2017-Nov-16 20:00N 28°07' W 014°03'32 1.2
2017-Nov-15 16:31N 28°36' W 013°47'1 8.4
2017-Nov-15 16:26N 28°37' W 013°47'3 8.1
2017-Nov-15 16:00N 28°40' W 013°47'4 8.0
2017-Nov-15 15:29N 28°44' W 013°46'4 7.7
2017-Nov-15 15:00N 28°48' W 013°46'9 6.6
2017-Nov-15 13:36N 28°48' W 013°57'3 7.5
2017-Nov-15 13:12N 28°48' W 014°01'2 7.7
2017-Nov-15 12:55N 28°48' W 014°03'50 7.0
2017-Nov-15 05:47N 28°42' W 014°59'2 6.4
2017-Nov-15 05:30N 28°42' W 015°01'3 6.6
2017-Nov-15 04:59N 28°41' W 015°05'3 6.6
2017-Nov-15 04:30N 28°41' W 015°09'3 6.6
2017-Nov-15 04:00N 28°41' W 015°13'3 6.8
2017-Nov-15 03:30N 28°41' W 015°17'3 7.0
2017-Nov-15 03:00N 28°41' W 015°21'3 6.9
2017-Nov-15 02:30N 28°41' W 015°24'3 6.9
2017-Nov-15 02:00N 28°40' W 015°28'3 6.9
2017-Nov-15 01:30N 28°40' W 015°32'3 6.9
2017-Nov-15 01:00N 28°40' W 015°36'4 7.0
2017-Nov-15 00:24N 28°40' W 015°41'3 7.1
2017-Nov-15 00:00N 28°39' W 015°44'13 7.1
2017-Nov-14 22:09N 28°34' W 015°58'2 7.2
2017-Nov-14 21:50N 28°33' W 015°60'3 7.6
2017-Nov-14 21:30N 28°32' W 016°02'4 7.2
2017-Nov-14 20:59N 28°30' W 016°06'4 7.3
2017-Nov-14 20:30N 28°29' W 016°10'4 7.6
2017-Nov-14 19:56N 28°27' W 016°14'1 0.1
2017-Nov-14 03:34N 28°28' W 016°14'54 1.8
2017-Nov-12 21:25N 27°58' W 015°23'2 4.2
2017-Nov-12 21:00N 27°59' W 015°21'1 2.3
2017-Nov-12 20:30N 27°58' W 015°20'4 8.1
2017-Nov-12 20:00N 28°02' W 015°20'4 7.8
2017-Nov-12 19:30N 28°05' W 015°22'4 7.1
2017-Nov-12 19:00N 28°08' W 015°25'1 1.8
2017-Nov-12 18:24N 28°09' W 015°25'0 0.0
2017-Nov-12 17:54N 28°09' W 015°25'0 0.0
2017-Nov-12 11:56N 28°09' W 015°25'1 3.0
2017-Nov-12 11:30N 28°08' W 015°25'2 4.8
2017-Nov-12 11:00N 28°06' W 015°22'2 5.0
2017-Nov-12 10:30N 28°09' W 015°22'1 1.0
2017-Nov-12 10:00N 28°08' W 015°23'4 7.4
2017-Nov-12 09:30N 28°05' W 015°21'4 7.4
2017-Nov-12 09:00N 28°01' W 015°20'4 7.2
2017-Nov-12 08:30N 27°58' W 015°20'3 5.6
2017-Nov-12 08:00N 27°55' W 015°21'1 2.0
2017-Nov-12 07:31N 27°56' W 015°22'0 0.0
2017-Nov-11 13:33N 27°56' W 015°22'0 0.3
2017-Nov-11 13:30N 27°56' W 015°22'1 2.6
2017-Nov-11 13:00N 27°55' W 015°21'2 4.8
2017-Nov-11 12:30N 27°56' W 015°18'4 7.9
2017-Nov-11 12:00N 27°60' W 015°19'4 7.7
2017-Nov-11 11:30N 28°03' W 015°20'4 7.4
2017-Nov-11 11:00N 28°07' W 015°20'4 7.2
2017-Nov-11 10:30N 28°11' W 015°21'3 6.2
2017-Nov-11 10:00N 28°13' W 015°22'3 6.2
2017-Nov-11 09:31N 28°14' W 015°25'3 6.2
2017-Nov-11 09:00N 28°15' W 015°29'3 6.2
2017-Nov-11 08:30N 28°15' W 015°32'3 5.7
2017-Nov-11 08:01N 28°16' W 015°35'3 5.8
2017-Nov-11 07:30N 28°17' W 015°39'3 5.8
2017-Nov-11 07:01N 28°18' W 015°42'3 5.6
2017-Nov-11 06:31N 28°18' W 015°45'3 5.7
2017-Nov-11 06:01N 28°19' W 015°48'3 5.4
2017-Nov-11 05:30N 28°20' W 015°51'3 5.4
2017-Nov-11 05:01N 28°21' W 015°54'3 5.7
2017-Nov-11 04:30N 28°21' W 015°57'3 5.8
2017-Nov-11 04:00N 28°22' W 016°00'3 5.8
2017-Nov-11 03:30N 28°23' W 016°03'3 6.0
2017-Nov-11 03:00N 28°24' W 016°06'3 6.0
2017-Nov-11 02:30N 28°25' W 016°10'3 6.4
2017-Nov-11 01:59N 28°26' W 016°13'  
Track history (hours):
 
Tides and Currents Weather Stations Pressure Air Temp Water Temp Dewpoint Dewpoint Depression Visibility Wind Speed Wind Dir Waves Ship Positions

Faycan

Last reported at 2017-Nov-18 19:51 UTC. Time now 2017-Nov-21 13:58 UTC.
Position N 28°43' W 015°04'.

Length 110 m; draft 6.8 m.

Type: Tanker. MMSI: 224458000.

Date/timePositionNaut miles runAvg speedWind from/ knotsBaromVisibWave heightAir tempDewpointWater temp
2017-Nov-18 19:51N 28°43' W 015°04'3 7.8
2017-Nov-18 19:30N 28°43' W 015°07'4 7.7
2017-Nov-18 18:58N 28°43' W 015°12'4 7.4
2017-Nov-18 18:24N 28°43' W 015°17'3 7.4
2017-Nov-18 18:00N 28°43' W 015°20'4 7.4
2017-Nov-18 17:30N 28°43' W 015°25'4 7.4
2017-Nov-18 17:00N 28°42' W 015°29'4 7.4
2017-Nov-18 16:29N 28°41' W 015°33'4 7.2
2017-Nov-18 15:58N 28°41' W 015°37'5 7.2
2017-Nov-18 15:13N 28°40' W 015°43'2 7.2
2017-Nov-18 14:58N 28°39' W 015°45'14 7.4
2017-Nov-18 13:06N 28°34' W 015°60'1 7.8
2017-Nov-18 13:00N 28°34' W 016°01'5 8.0
2017-Nov-18 12:22N 28°31' W 016°06'5 8.0
2017-Nov-18 11:45N 28°29' W 016°10'5 0.3
2017-Nov-17 18:17N 28°27' W 016°16'1 2.3
2017-Nov-17 17:43N 28°27' W 016°14'3 2.0
2017-Nov-17 16:00N 28°23' W 016°13'1 0.8
2017-Nov-17 14:48N 28°24' W 016°12'1 0.7
2017-Nov-17 13:34N 28°25' W 016°12'0 0.6
2017-Nov-17 13:26N 28°25' W 016°12'0 0.7
2017-Nov-17 13:00N 28°25' W 016°12'0 0.7
2017-Nov-17 12:26N 28°25' W 016°11'0 0.6
2017-Nov-17 12:00N 28°26' W 016°11'0 0.6
2017-Nov-17 11:24N 28°26' W 016°11'3 7.5
2017-Nov-17 11:00N 28°28' W 016°09'5 8.6
2017-Nov-17 10:28N 28°31' W 016°05'4 8.7
2017-Nov-17 09:59N 28°33' W 016°01'4 8.8
2017-Nov-17 09:30N 28°35' W 015°56'4 8.7
2017-Nov-17 09:00N 28°37' W 015°52'4 8.8
2017-Nov-17 08:30N 28°38' W 015°47'4 8.1
2017-Nov-17 08:00N 28°38' W 015°43'4 8.6
2017-Nov-17 07:30N 28°35' W 015°39'4 8.6
2017-Nov-17 07:00N 28°33' W 015°35'4 8.4
2017-Nov-17 06:30N 28°30' W 015°31'4 8.3
2017-Nov-17 06:00N 28°28' W 015°27'4 8.3
2017-Nov-17 05:30N 28°25' W 015°24'4 8.5
2017-Nov-17 05:00N 28°23' W 015°20'4 8.5
2017-Nov-17 04:30N 28°20' W 015°16'4 8.4
2017-Nov-17 04:00N 28°17' W 015°12'4 8.5
2017-Nov-17 03:30N 28°15' W 015°08'4 8.3
2017-Nov-17 03:00N 28°12' W 015°05'4 8.5
2017-Nov-17 02:30N 28°10' W 015°00'4 8.8
2017-Nov-17 02:00N 28°09' W 014°56'4 8.6
2017-Nov-17 01:30N 28°08' W 014°51'4 8.2
2017-Nov-17 01:00N 28°06' W 014°47'4 8.3
2017-Nov-17 00:30N 28°05' W 014°42'4 8.6
2017-Nov-17 00:00N 28°03' W 014°38'4 8.1
2017-Nov-16 23:30N 28°02' W 014°33'24 7.8
2017-Nov-16 20:28N 28°06' W 014°07'4 8.3
2017-Nov-16 20:00N 28°07' W 014°03'32 1.2
2017-Nov-15 16:31N 28°36' W 013°47'1 8.4
2017-Nov-15 16:26N 28°37' W 013°47'3 8.1
2017-Nov-15 16:00N 28°40' W 013°47'4 8.0
2017-Nov-15 15:29N 28°44' W 013°46'4 7.7
2017-Nov-15 15:00N 28°48' W 013°46'9 6.6
2017-Nov-15 13:36N 28°48' W 013°57'3 7.5
2017-Nov-15 13:12N 28°48' W 014°01'2 7.7
2017-Nov-15 12:55N 28°48' W 014°03'50 7.0
2017-Nov-15 05:47N 28°42' W 014°59'2 6.4
2017-Nov-15 05:30N 28°42' W 015°01'3 6.6
2017-Nov-15 04:59N 28°41' W 015°05'3 6.6
2017-Nov-15 04:30N 28°41' W 015°09'3 6.6
2017-Nov-15 04:00N 28°41' W 015°13'3 6.8
2017-Nov-15 03:30N 28°41' W 015°17'3 7.0
2017-Nov-15 03:00N 28°41' W 015°21'3 6.9
2017-Nov-15 02:30N 28°41' W 015°24'3 6.9
2017-Nov-15 02:00N 28°40' W 015°28'3 6.9
2017-Nov-15 01:30N 28°40' W 015°32'3 6.9
2017-Nov-15 01:00N 28°40' W 015°36'4 7.0
2017-Nov-15 00:24N 28°40' W 015°41'3 7.1
2017-Nov-15 00:00N 28°39' W 015°44'13 7.1
2017-Nov-14 22:09N 28°34' W 015°58'2 7.2
2017-Nov-14 21:50N 28°33' W 015°60'3 7.6
2017-Nov-14 21:30N 28°32' W 016°02'4 7.2
2017-Nov-14 20:59N 28°30' W 016°06'4 7.3
2017-Nov-14 20:30N 28°29' W 016°10'4 7.6
2017-Nov-14 19:56N 28°27' W 016°14'1 0.1
2017-Nov-14 03:34N 28°28' W 016°14'54 1.8
2017-Nov-12 21:25N 27°58' W 015°23'2 4.2
2017-Nov-12 21:00N 27°59' W 015°21'1 2.3
2017-Nov-12 20:30N 27°58' W 015°20'4 8.1
2017-Nov-12 20:00N 28°02' W 015°20'4 7.8
2017-Nov-12 19:30N 28°05' W 015°22'4 7.1
2017-Nov-12 19:00N 28°08' W 015°25'1 1.8
2017-Nov-12 18:24N 28°09' W 015°25'0 0.0
2017-Nov-12 17:54N 28°09' W 015°25'0 0.0
2017-Nov-12 11:56N 28°09' W 015°25'1 3.0
2017-Nov-12 11:30N 28°08' W 015°25'2 4.8
2017-Nov-12 11:00N 28°06' W 015°22'2 5.0
2017-Nov-12 10:30N 28°09' W 015°22'1 1.0
2017-Nov-12 10:00N 28°08' W 015°23'4 7.4
2017-Nov-12 09:30N 28°05' W 015°21'4 7.4
2017-Nov-12 09:00N 28°01' W 015°20'4 7.2
2017-Nov-12 08:30N 27°58' W 015°20'3 5.6
2017-Nov-12 08:00N 27°55' W 015°21'1 2.0
2017-Nov-12 07:31N 27°56' W 015°22'0 0.0
2017-Nov-11 13:33N 27°56' W 015°22'0 0.3
2017-Nov-11 13:30N 27°56' W 015°22'1 2.6
2017-Nov-11 13:00N 27°55' W 015°21'2 4.8
2017-Nov-11 12:30N 27°56' W 015°18'4 7.9
2017-Nov-11 12:00N 27°60' W 015°19'4 7.7
2017-Nov-11 11:30N 28°03' W 015°20'4 7.4
2017-Nov-11 11:00N 28°07' W 015°20'4 7.2
2017-Nov-11 10:30N 28°11' W 015°21'3 6.2
2017-Nov-11 10:00N 28°13' W 015°22'3 6.2
2017-Nov-11 09:31N 28°14' W 015°25'3 6.2
2017-Nov-11 09:00N 28°15' W 015°29'3 6.2
2017-Nov-11 08:30N 28°15' W 015°32'3 5.7
2017-Nov-11 08:01N 28°16' W 015°35'3 5.8
2017-Nov-11 07:30N 28°17' W 015°39'3 5.8
2017-Nov-11 07:01N 28°18' W 015°42'3 5.6
2017-Nov-11 06:31N 28°18' W 015°45'3 5.7
2017-Nov-11 06:01N 28°19' W 015°48'3 5.4
2017-Nov-11 05:30N 28°20' W 015°51'3 5.4
2017-Nov-11 05:01N 28°21' W 015°54'3 5.7
2017-Nov-11 04:30N 28°21' W 015°57'3 5.8
2017-Nov-11 04:00N 28°22' W 016°00'3 5.8
2017-Nov-11 03:30N 28°23' W 016°03'3 6.0
2017-Nov-11 03:00N 28°24' W 016°06'3 6.0
2017-Nov-11 02:30N 28°25' W 016°10'3 6.4
2017-Nov-11 01:59N 28°26' W 016°13'  

Dump ship's entire track history